sensor_id;sensor_type;location;lat;lon;timestamp;pressure;altitude;pressure_sealevel;temperature;humidity
5595;BME280;1003;48.002;7.788;2022-09-24T00:00:45;98561.81;;;13.27;100.00
5595;BME280;1003;48.002;7.788;2022-09-24T00:03:17;98560.91;;;13.29;100.00
5595;BME280;1003;48.002;7.788;2022-09-24T00:05:46;98554.09;;;13.31;100.00
5595;BME280;1003;48.002;7.788;2022-09-24T00:08:14;98543.72;;;13.41;100.00
5595;BME280;1003;48.002;7.788;2022-09-24T00:10:45;98543.59;;;13.44;100.00
5595;BME280;1003;48.002;7.788;2022-09-24T00:13:16;98546.13;;;13.44;100.00
5595;BME280;1003;48.002;7.788;2022-09-24T00:15:45;98541.88;;;13.46;100.00
5595;BME280;1003;48.002;7.788;2022-09-24T00:18:14;98534.25;;;13.47;100.00
5595;BME280;1003;48.002;7.788;2022-09-24T00:20:42;98531.59;;;13.50;100.00
5595;BME280;1003;48.002;7.788;2022-09-24T00:23:10;98537.50;;;13.51;100.00
5595;BME280;1003;48.002;7.788;2022-09-24T00:25:40;98543.41;;;13.50;100.00
5595;BME280;1003;48.002;7.788;2022-09-24T00:28:26;98543.47;;;13.48;100.00
5595;BME280;1003;48.002;7.788;2022-09-24T00:30:54;98541.88;;;13.46;100.00
5595;BME280;1003;48.002;7.788;2022-09-24T00:33:23;98551.97;;;13.46;100.00
5595;BME280;1003;48.002;7.788;2022-09-24T00:35:51;98541.94;;;13.43;100.00
5595;BME280;1003;48.002;7.788;2022-09-24T00:38:18;98536.13;;;13.41;100.00
5595;BME280;1003;48.002;7.788;2022-09-24T00:40:45;98531.09;;;13.41;100.00
5595;BME280;1003;48.002;7.788;2022-09-24T00:43:25;98529.38;;;13.41;100.00
5595;BME280;1003;48.002;7.788;2022-09-24T00:46:06;98522.59;;;13.43;100.00
5595;BME280;1003;48.002;7.788;2022-09-24T00:48:37;98520.19;;;13.38;100.00
5595;BME280;1003;48.002;7.788;2022-09-24T00:51:05;98520.19;;;13.40;100.00
5595;BME280;1003;48.002;7.788;2022-09-24T00:53:34;98519.22;;;13.43;100.00
5595;BME280;1003;48.002;7.788;2022-09-24T00:56:02;98515.13;;;13.40;100.00
5595;BME280;1003;48.002;7.788;2022-09-24T00:58:32;98514.38;;;13.36;100.00
5595;BME280;1003;48.002;7.788;2022-09-24T01:01:04;98513.50;;;13.37;100.00
5595;BME280;1003;48.002;7.788;2022-09-24T01:03:37;98509.19;;;13.41;100.00
5595;BME280;1003;48.002;7.788;2022-09-24T01:06:08;98512.69;;;13.37;100.00
5595;BME280;1003;48.002;7.788;2022-09-24T01:08:35;98508.53;;;13.36;100.00
5595;BME280;1003;48.002;7.788;2022-09-24T01:17:08;98487.31;;;13.42;100.00
5595;BME280;1003;48.002;7.788;2022-09-24T01:20:09;98499.63;;;13.51;100.00
5595;BME280;1003;48.002;7.788;2022-09-24T01:22:51;98501.41;;;13.47;100.00
5595;BME280;1003;48.002;7.788;2022-09-24T01:25:32;98505.72;;;13.44;100.00
5595;BME280;1003;48.002;7.788;2022-09-24T01:28:24;98504.22;;;13.38;100.00
5595;BME280;1003;48.002;7.788;2022-09-24T01:31:02;98510.72;;;13.45;100.00
5595;BME280;1003;48.002;7.788;2022-09-24T01:33:33;98509.22;;;13.39;100.00
5595;BME280;1003;48.002;7.788;2022-09-24T01:36:04;98509.41;;;13.35;100.00
5595;BME280;1003;48.002;7.788;2022-09-24T01:38:36;98510.31;;;13.32;100.00
5595;BME280;1003;48.002;7.788;2022-09-24T01:41:08;98496.91;;;13.30;100.00
5595;BME280;1003;48.002;7.788;2022-09-24T01:43:36;98483.56;;;13.27;100.00
5595;BME280;1003;48.002;7.788;2022-09-24T01:46:06;98494.47;;;13.27;100.00
5595;BME280;1003;48.002;7.788;2022-09-24T01:48:35;98477.69;;;13.26;100.00
5595;BME280;1003;48.002;7.788;2022-09-24T01:51:07;98486.09;;;13.27;100.00
5595;BME280;1003;48.002;7.788;2022-09-24T01:53:40;98486.97;;;13.26;100.00
5595;BME280;1003;48.002;7.788;2022-09-24T01:56:14;98492.75;;;13.29;100.00
5595;BME280;1003;48.002;7.788;2022-09-24T01:58:48;98497.75;;;13.31;100.00
5595;BME280;1003;48.002;7.788;2022-09-24T02:01:25;98493.56;;;13.30;100.00
5595;BME280;1003;48.002;7.788;2022-09-24T02:03:57;98512.09;;;13.29;100.00
5595;BME280;1003;48.002;7.788;2022-09-24T02:06:32;98500.31;;;13.29;100.00
5595;BME280;1003;48.002;7.788;2022-09-24T02:09:01;98501.84;;;13.33;100.00
5595;BME280;1003;48.002;7.788;2022-09-24T02:11:31;98492.75;;;13.29;100.00
5595;BME280;1003;48.002;7.788;2022-09-24T02:14:02;98490.13;;;13.32;100.00
5595;BME280;1003;48.002;7.788;2022-09-24T02:16:36;98480.63;;;13.39;100.00
5595;BME280;1003;48.002;7.788;2022-09-24T02:19:06;98476.25;;;13.44;100.00
5595;BME280;1003;48.002;7.788;2022-09-24T02:21:38;98474.19;;;13.57;100.00
5595;BME280;1003;48.002;7.788;2022-09-24T02:24:09;98467.31;;;13.60;100.00
5595;BME280;1003;48.002;7.788;2022-09-24T02:26:40;98463.13;;;13.59;100.00
5595;BME280;1003;48.002;7.788;2022-09-24T02:29:07;98469.88;;;13.59;100.00
5595;BME280;1003;48.002;7.788;2022-09-24T02:31:39;98463.97;;;13.60;100.00
5595;BME280;1003;48.002;7.788;2022-09-24T02:34:11;98472.19;;;13.65;100.00
5595;BME280;1003;48.002;7.788;2022-09-24T02:36:48;98463.72;;;13.68;100.00
5595;BME280;1003;48.002;7.788;2022-09-24T02:39:16;98450.19;;;13.69;100.00
5595;BME280;1003;48.002;7.788;2022-09-24T02:41:44;98453.56;;;13.69;100.00
5595;BME280;1003;48.002;7.788;2022-09-24T02:44:13;98456.84;;;13.71;100.00
5595;BME280;1003;48.002;7.788;2022-09-24T02:46:42;98461.94;;;13.70;100.00
5595;BME280;1003;48.002;7.788;2022-09-24T02:49:10;98467.75;;;13.72;100.00
5595;BME280;1003;48.002;7.788;2022-09-24T02:51:38;98466.84;;;13.74;100.00
5595;BME280;1003;48.002;7.788;2022-09-24T02:54:06;98471.91;;;13.74;100.00
5595;BME280;1003;48.002;7.788;2022-09-24T02:56:33;98454.97;;;13.76;100.00
5595;BME280;1003;48.002;7.788;2022-09-24T02:59:01;98448.66;;;13.88;100.00
5595;BME280;1003;48.002;7.788;2022-09-24T03:01:30;98451.19;;;13.88;100.00
5595;BME280;1003;48.002;7.788;2022-09-24T03:04:00;98447.09;;;13.85;100.00
5595;BME280;1003;48.002;7.788;2022-09-24T03:06:28;98448.78;;;13.85;100.00
5595;BME280;1003;48.002;7.788;2022-09-24T03:08:56;98444.47;;;13.88;100.00
5595;BME280;1003;48.002;7.788;2022-09-24T03:11:23;98452.91;;;13.87;100.00
5595;BME280;1003;48.002;7.788;2022-09-24T03:13:51;98447.91;;;13.86;100.00
5595;BME280;1003;48.002;7.788;2022-09-24T03:16:18;98448.66;;;13.88;100.00
5595;BME280;1003;48.002;7.788;2022-09-24T03:18:46;98445.31;;;13.87;100.00
5595;BME280;1003;48.002;7.788;2022-09-24T03:21:17;98447.91;;;13.86;100.00
5595;BME280;1003;48.002;7.788;2022-09-24T03:23:44;98437.91;;;13.83;100.00
5595;BME280;1003;48.002;7.788;2022-09-24T03:26:12;98439.66;;;13.81;100.00
5595;BME280;1003;48.002;7.788;2022-09-24T03:28:41;98432.97;;;13.80;100.00
5595;BME280;1003;48.002;7.788;2022-09-24T03:31:08;98433.78;;;13.80;100.00
5595;BME280;1003;48.002;7.788;2022-09-24T03:33:36;98428.81;;;13.79;100.00
5595;BME280;1003;48.002;7.788;2022-09-24T03:36:06;98425.34;;;13.81;100.00
5595;BME280;1003;48.002;7.788;2022-09-24T03:38:35;98425.13;;;13.87;100.00
5595;BME280;1003;48.002;7.788;2022-09-24T03:41:05;98428.44;;;13.89;100.00
5595;BME280;1003;48.002;7.788;2022-09-24T03:43:33;98422.38;;;13.93;100.00
5595;BME280;1003;48.002;7.788;2022-09-24T03:46:01;98425.78;;;13.92;100.00
5595;BME280;1003;48.002;7.788;2022-09-24T03:48:29;98422.09;;;14.01;100.00
5595;BME280;1003;48.002;7.788;2022-09-24T03:50:56;98431.38;;;14.01;100.00
5595;BME280;1003;48.002;7.788;2022-09-24T03:53:28;98423.03;;;13.99;100.00
5595;BME280;1003;48.002;7.788;2022-09-24T03:55:57;98426.44;;;13.98;100.00
5595;BME280;1003;48.002;7.788;2022-09-24T03:58:28;98422.59;;;13.87;100.00
5595;BME280;1003;48.002;7.788;2022-09-24T04:00:57;98426.97;;;13.82;100.00
5595;BME280;1003;48.002;7.788;2022-09-24T04:03:25;98416.19;;;13.79;100.00
5595;BME280;1003;48.002;7.788;2022-09-24T04:05:52;98412.09;;;13.75;100.00
5595;BME280;1003;48.002;7.788;2022-09-24T04:08:20;98413.75;;;13.76;100.00
5595;BME280;1003;48.002;7.788;2022-09-24T04:10:49;98418.97;;;13.71;100.00
5595;BME280;1003;48.002;7.788;2022-09-24T04:13:18;98407.22;;;13.70;100.00
5595;BME280;1003;48.002;7.788;2022-09-24T04:15:46;98410.63;;;13.69;100.00
5595;BME280;1003;48.002;7.788;2022-09-24T04:18:15;98411.59;;;13.65;100.00
5595;BME280;1003;48.002;7.788;2022-09-24T04:20:42;98403.25;;;13.63;100.00
5595;BME280;1003;48.002;7.788;2022-09-24T04:23:10;98407.34;;;13.67;100.00
5595;BME280;1003;48.002;7.788;2022-09-24T04:25:38;98408.38;;;13.61;100.00
5595;BME280;1003;48.002;7.788;2022-09-24T04:28:07;98404.25;;;13.59;100.00
5595;BME280;1003;48.002;7.788;2022-09-24T04:30:37;98397.63;;;13.56;100.00
5595;BME280;1003;48.002;7.788;2022-09-24T04:33:04;98396.00;;;13.54;100.00
5595;BME280;1003;48.002;7.788;2022-09-24T04:35:33;98396.00;;;13.54;100.00
5595;BME280;1003;48.002;7.788;2022-09-24T04:38:02;98390.06;;;13.55;100.00
5595;BME280;1003;48.002;7.788;2022-09-24T04:40:30;98390.06;;;13.55;100.00
5595;BME280;1003;48.002;7.788;2022-09-24T04:42:58;98391.72;;;13.56;100.00
5595;BME280;1003;48.002;7.788;2022-09-24T04:45:25;98390.47;;;13.68;100.00
5595;BME280;1003;48.002;7.788;2022-09-24T04:47:54;98389.91;;;13.59;100.00
5595;BME280;1003;48.002;7.788;2022-09-24T04:50:23;98387.22;;;13.64;100.00
5595;BME280;1003;48.002;7.788;2022-09-24T04:52:50;98389.00;;;13.62;100.00
5595;BME280;1003;48.002;7.788;2022-09-24T04:55:17;98388.88;;;13.65;100.00
5595;BME280;1003;48.002;7.788;2022-09-24T04:57:46;98387.28;;;13.62;100.00
5595;BME280;1003;48.002;7.788;2022-09-24T05:00:15;98386.84;;;13.75;100.00
5595;BME280;1003;48.002;7.788;2022-09-24T05:02:43;98389.53;;;13.70;100.00
5595;BME280;1003;48.002;7.788;2022-09-24T05:05:12;98397.25;;;13.67;100.00
5595;BME280;1003;48.002;7.788;2022-09-24T05:07:41;98398.22;;;13.63;100.00
5595;BME280;1003;48.002;7.788;2022-09-24T05:10:09;98401.34;;;13.70;100.00
5595;BME280;1003;48.002;7.788;2022-09-24T05:12:39;98397.25;;;13.67;100.00
5595;BME280;1003;48.002;7.788;2022-09-24T05:15:07;98399.84;;;13.64;100.00
5595;BME280;1003;48.002;7.788;2022-09-24T05:17:37;98396.88;;;13.76;100.00
5595;BME280;1003;48.002;7.788;2022-09-24T05:20:06;98394.50;;;13.73;100.00
5595;BME280;1003;48.002;7.788;2022-09-24T05:22:40;98395.25;;;13.75;100.00
5595;BME280;1003;48.002;7.788;2022-09-24T05:25:07;98396.78;;;13.79;100.00
5595;BME280;1003;48.002;7.788;2022-09-24T05:27:35;98395.25;;;13.75;100.00
5595;BME280;1003;48.002;7.788;2022-09-24T05:30:01;98399.16;;;13.84;100.00
5595;BME280;1003;48.002;7.788;2022-09-24T05:32:31;98404.91;;;13.87;100.00
5595;BME280;1003;48.002;7.788;2022-09-24T05:35:01;98408.44;;;13.83;100.00
5595;BME280;1003;48.002;7.788;2022-09-24T05:37:29;98407.59;;;13.83;100.00
5595;BME280;1003;48.002;7.788;2022-09-24T05:39:57;98412.31;;;13.92;100.00
5595;BME280;1003;48.002;7.788;2022-09-24T05:42:45;98414.84;;;13.92;100.00
5595;BME280;1003;48.002;7.788;2022-09-24T05:45:12;98416.56;;;13.91;100.00
5595;BME280;1003;48.002;7.788;2022-09-24T05:47:43;98421.59;;;13.91;100.00
5595;BME280;1003;48.002;7.788;2022-09-24T05:50:10;98421.66;;;13.90;100.00
5595;BME280;1003;48.002;7.788;2022-09-24T05:52:38;98414.97;;;13.89;100.00
5595;BME280;1003;48.002;7.788;2022-09-24T05:55:09;98419.97;;;13.90;100.00
5595;BME280;1003;48.002;7.788;2022-09-24T05:57:37;98419.75;;;13.97;100.00
5595;BME280;1003;48.002;7.788;2022-09-24T06:00:06;98420.63;;;13.96;100.00
5595;BME280;1003;48.002;7.788;2022-09-24T06:02:33;98412.75;;;14.03;100.00
5595;BME280;1003;48.002;7.788;2022-09-24T06:05:01;98420.00;;;14.12;100.00
5595;BME280;1003;48.002;7.788;2022-09-24T06:07:28;98419.94;;;14.14;100.00
5595;BME280;1003;48.002;7.788;2022-09-24T06:09:56;98416.59;;;14.13;100.00
5595;BME280;1003;48.002;7.788;2022-09-24T06:12:25;98423.25;;;14.16;100.00
5595;BME280;1003;48.002;7.788;2022-09-24T06:14:53;98418.63;;;14.27;100.00
5595;BME280;1003;48.002;7.788;2022-09-24T06:17:20;98426.03;;;14.32;100.00
5595;BME280;1003;48.002;7.788;2022-09-24T06:19:48;98424.34;;;14.32;100.00
5595;BME280;1003;48.002;7.788;2022-09-24T06:22:15;98420.13;;;14.31;100.00
5595;BME280;1003;48.002;7.788;2022-09-24T06:24:43;98428.44;;;14.35;100.00
5595;BME280;1003;48.002;7.788;2022-09-24T06:27:11;98432.56;;;14.37;100.00
5595;BME280;1003;48.002;7.788;2022-09-24T06:29:39;98439.72;;;14.50;100.00
5595;BME280;1003;48.002;7.788;2022-09-24T06:32:07;98440.44;;;14.53;100.00
5595;BME280;1003;48.002;7.788;2022-09-24T06:34:34;98443.38;;;14.64;100.00
5595;BME280;1003;48.002;7.788;2022-09-24T06:37:01;98443.94;;;14.71;100.00
5595;BME280;1003;48.002;7.788;2022-09-24T06:39:29;98451.22;;;14.79;100.00
5595;BME280;1003;48.002;7.788;2022-09-24T06:41:56;98447.72;;;14.83;100.00
5595;BME280;1003;48.002;7.788;2022-09-24T06:44:24;98444.00;;;14.91;100.00
5595;BME280;1003;48.002;7.788;2022-09-24T06:46:53;98450.56;;;14.95;100.00
5595;BME280;1003;48.002;7.788;2022-09-24T06:49:22;98447.94;;;14.99;100.00
5595;BME280;1003;48.002;7.788;2022-09-24T06:51:49;98445.41;;;14.99;100.00
5595;BME280;1003;48.002;7.788;2022-09-24T06:54:16;98450.94;;;15.08;100.00
5595;BME280;1003;48.002;7.788;2022-09-24T06:56:44;98449.59;;;15.20;100.00
5595;BME280;1003;48.002;7.788;2022-09-24T06:59:11;98457.00;;;15.25;100.00
5595;BME280;1003;48.002;7.788;2022-09-24T07:01:39;98463.22;;;15.38;100.00
5595;BME280;1003;48.002;7.788;2022-09-24T07:04:07;98472.59;;;15.56;100.00
5595;BME280;1003;48.002;7.788;2022-09-24T07:06:35;98473.00;;;15.67;100.00
5595;BME280;1003;48.002;7.788;2022-09-24T07:09:16;98478.63;;;15.74;100.00
5595;BME280;1003;48.002;7.788;2022-09-24T07:11:43;98477.09;;;15.70;100.00
5595;BME280;1003;48.002;7.788;2022-09-24T07:14:11;98475.25;;;15.73;100.00
5595;BME280;1003;48.002;7.788;2022-09-24T07:16:39;98485.06;;;15.81;100.00
5595;BME280;1003;48.002;7.788;2022-09-24T07:19:07;98486.94;;;15.96;100.00
5595;BME280;1003;48.002;7.788;2022-09-24T07:21:35;98491.28;;;15.94;100.00
5595;BME280;1003;48.002;7.788;2022-09-24T07:24:02;98493.41;;;16.04;100.00
5595;BME280;1003;48.002;7.788;2022-09-24T07:26:30;98490.63;;;16.10;100.00
5595;BME280;1003;48.002;7.788;2022-09-24T07:28:57;98500.31;;;16.19;100.00
5595;BME280;1003;48.002;7.788;2022-09-24T07:31:25;98500.22;;;16.22;100.00
5595;BME280;1003;48.002;7.788;2022-09-24T07:33:52;98495.69;;;16.28;100.00
5595;BME280;1003;48.002;7.788;2022-09-24T07:36:21;98496.22;;;16.35;100.00
5595;BME280;1003;48.002;7.788;2022-09-24T07:38:48;98497.47;;;16.45;100.00
5595;BME280;1003;48.002;7.788;2022-09-24T07:41:15;98499.78;;;16.50;100.00
5595;BME280;1003;48.002;7.788;2022-09-24T07:43:45;98503.44;;;16.63;100.00
5595;BME280;1003;48.002;7.788;2022-09-24T07:46:12;98501.50;;;16.68;100.00
5595;BME280;1003;48.002;7.788;2022-09-24T07:48:40;98502.09;;;16.75;100.00
5595;BME280;1003;48.002;7.788;2022-09-24T07:51:09;98500.19;;;16.78;100.00
5595;BME280;1003;48.002;7.788;2022-09-24T07:53:38;98503.94;;;16.71;100.00
5595;BME280;1003;48.002;7.788;2022-09-24T07:56:05;98513.59;;;16.82;100.00
5595;BME280;1003;48.002;7.788;2022-09-24T07:58:32;98507.78;;;16.80;100.00
5595;BME280;1003;48.002;7.788;2022-09-24T08:01:00;98508.38;;;16.85;100.00
5595;BME280;1003;48.002;7.788;2022-09-24T08:03:28;98507.78;;;16.97;100.00
5595;BME280;1003;48.002;7.788;2022-09-24T08:05:56;98506.19;;;17.14;100.00
5595;BME280;1003;48.002;7.788;2022-09-24T08:08:25;98511.88;;;17.19;100.00
5595;BME280;1003;48.002;7.788;2022-09-24T08:10:53;98510.06;;;17.21;100.00
5595;BME280;1003;48.002;7.788;2022-09-24T08:13:21;98506.34;;;17.28;100.00
5595;BME280;1003;48.002;7.788;2022-09-24T08:15:55;98512.47;;;17.41;100.00
5595;BME280;1003;48.002;7.788;2022-09-24T08:18:24;98513.19;;;17.43;100.00
5595;BME280;1003;48.002;7.788;2022-09-24T08:20:51;98513.22;;;17.61;100.00
5595;BME280;1003;48.002;7.788;2022-09-24T08:23:19;98522.41;;;17.63;100.00
5595;BME280;1003;48.002;7.788;2022-09-24T08:25:46;98530.69;;;17.67;100.00
5595;BME280;1003;48.002;7.788;2022-09-24T08:28:15;98527.75;;;17.76;100.00
5595;BME280;1003;48.002;7.788;2022-09-24T08:30:45;98532.84;;;17.76;100.00
5595;BME280;1003;48.002;7.788;2022-09-24T08:33:12;98530.56;;;17.87;100.00
5595;BME280;1003;48.002;7.788;2022-09-24T08:35:41;98519.81;;;17.82;100.00
5595;BME280;1003;48.002;7.788;2022-09-24T08:38:08;98516.50;;;17.80;100.00
5595;BME280;1003;48.002;7.788;2022-09-24T08:40:38;98529.59;;;17.90;100.00
5595;BME280;1003;48.002;7.788;2022-09-24T08:43:21;98518.72;;;18.03;100.00
5595;BME280;1003;48.002;7.788;2022-09-24T08:45:56;98528.91;;;18.03;100.00
5595;BME280;1003;48.002;7.788;2022-09-24T08:48:45;98532.88;;;18.25;100.00
5595;BME280;1003;48.002;7.788;2022-09-24T08:51:17;98536.03;;;18.46;100.00
5595;BME280;1003;48.002;7.788;2022-09-24T08:53:49;98538.06;;;18.55;100.00
5595;BME280;1003;48.002;7.788;2022-09-24T08:56:23;98541.44;;;18.55;100.00
5595;BME280;1003;48.002;7.788;2022-09-24T08:58:57;98540.22;;;18.62;100.00
5595;BME280;1003;48.002;7.788;2022-09-24T09:01:32;98533.03;;;18.71;100.00
5595;BME280;1003;48.002;7.788;2022-09-24T09:04:14;98531.19;;;19.04;100.00
5595;BME280;1003;48.002;7.788;2022-09-24T09:06:56;98532.84;;;19.35;100.00
5595;BME280;1003;48.002;7.788;2022-09-24T09:09:40;98532.53;;;19.56;100.00
5595;BME280;1003;48.002;7.788;2022-09-24T09:12:14;98537.44;;;19.75;100.00
5595;BME280;1003;48.002;7.788;2022-09-24T09:14:48;98537.81;;;19.83;100.00
5595;BME280;1003;48.002;7.788;2022-09-24T09:17:26;98530.44;;;19.92;100.00
5595;BME280;1003;48.002;7.788;2022-09-24T09:19:57;98535.38;;;19.81;100.00
5595;BME280;1003;48.002;7.788;2022-09-24T09:22:30;98545.56;;;19.81;100.00
5595;BME280;1003;48.002;7.788;2022-09-24T09:25:03;98552.94;;;19.86;100.00
5595;BME280;1003;48.002;7.788;2022-09-24T09:27:37;98554.84;;;19.82;100.00
5595;BME280;1003;48.002;7.788;2022-09-24T09:30:11;98554.94;;;19.81;100.00
5595;BME280;1003;48.002;7.788;2022-09-24T09:32:49;98555.69;;;19.97;100.00
5595;BME280;1003;48.002;7.788;2022-09-24T09:35:26;98553.66;;;19.88;100.00
5595;BME280;1003;48.002;7.788;2022-09-24T09:38:02;98558.59;;;19.91;100.00
5595;BME280;1003;48.002;7.788;2022-09-24T09:40:34;98552.84;;;19.87;100.00
5595;BME280;1003;48.002;7.788;2022-09-24T09:43:03;98559.78;;;20.00;100.00
5595;BME280;1003;48.002;7.788;2022-09-24T09:45:40;98557.69;;;19.92;100.00
5595;BME280;1003;48.002;7.788;2022-09-24T09:48:09;98551.91;;;19.74;100.00
5595;BME280;1003;48.002;7.788;2022-09-24T09:50:41;98557.88;;;20.17;100.00
5595;BME280;1003;48.002;7.788;2022-09-24T09:53:18;98558.19;;;20.56;100.00
5595;BME280;1003;48.002;7.788;2022-09-24T09:55:51;98557.81;;;20.62;97.03
5595;BME280;1003;48.002;7.788;2022-09-24T09:58:23;98559.53;;;20.18;95.72
5595;BME280;1003;48.002;7.788;2022-09-24T10:01:03;98562.44;;;19.98;97.09
5595;BME280;1003;48.002;7.788;2022-09-24T10:03:34;98562.03;;;19.90;100.00
5595;BME280;1003;48.002;7.788;2022-09-24T10:06:14;98567.63;;;19.97;100.00
5595;BME280;1003;48.002;7.788;2022-09-24T10:08:48;98562.06;;;20.04;100.00
5595;BME280;1003;48.002;7.788;2022-09-24T10:11:17;98571.91;;;20.10;100.00
5595;BME280;1003;48.002;7.788;2022-09-24T10:13:45;98571.19;;;20.08;100.00
5595;BME280;1003;48.002;7.788;2022-09-24T10:16:14;98570.53;;;20.33;100.00
5595;BME280;1003;48.002;7.788;2022-09-24T10:18:44;98561.88;;;20.79;100.00
5595;BME280;1003;48.002;7.788;2022-09-24T10:21:21;98565.44;;;21.03;100.00
5595;BME280;1003;48.002;7.788;2022-09-24T10:23:51;98564.97;;;21.11;100.00
5595;BME280;1003;48.002;7.788;2022-09-24T10:26:33;98565.19;;;20.66;93.63
5595;BME280;1003;48.002;7.788;2022-09-24T10:29:01;98564.53;;;21.04;97.60
5595;BME280;1003;48.002;7.788;2022-09-24T10:31:48;98553.72;;;21.13;98.38
5595;BME280;1003;48.002;7.788;2022-09-24T10:34:23;98549.00;;;21.34;94.12
5595;BME280;1003;48.002;7.788;2022-09-24T10:36:56;98547.50;;;21.44;89.28
5595;BME280;1003;48.002;7.788;2022-09-24T10:39:24;98552.78;;;21.14;92.55
5595;BME280;1003;48.002;7.788;2022-09-24T10:41:53;98544.47;;;20.98;93.48
5595;BME280;1003;48.002;7.788;2022-09-24T10:44:22;98543.78;;;20.82;88.27
5595;BME280;1003;48.002;7.788;2022-09-24T10:47:10;98537.78;;;21.10;88.63
5595;BME280;1003;48.002;7.788;2022-09-24T10:49:51;98538.09;;;20.91;96.47
5595;BME280;1003;48.002;7.788;2022-09-24T10:52:33;98537.72;;;20.97;99.25
5595;BME280;1003;48.002;7.788;2022-09-24T10:55:11;98528.81;;;20.90;97.51
5595;BME280;1003;48.002;7.788;2022-09-24T10:57:51;98529.91;;;21.13;87.83
5595;BME280;1003;48.002;7.788;2022-09-24T11:00:22;98529.91;;;21.40;89.86
5595;BME280;1003;48.002;7.788;2022-09-24T11:03:23;98536.91;;;21.63;86.75
5595;BME280;1003;48.002;7.788;2022-09-24T11:05:59;98533.72;;;21.72;88.85
5595;BME280;1003;48.002;7.788;2022-09-24T11:08:38;98524.31;;;21.73;86.92
5595;BME280;1003;48.002;7.788;2022-09-24T11:11:20;98523.47;;;22.36;83.58
5595;BME280;1003;48.002;7.788;2022-09-24T11:13:56;98522.31;;;22.53;76.31
5595;BME280;1003;48.002;7.788;2022-09-24T11:16:47;98519.84;;;22.51;73.91
5595;BME280;1003;48.002;7.788;2022-09-24T11:19:33;98525.00;;;22.75;69.80
5595;BME280;1003;48.002;7.788;2022-09-24T11:22:12;98524.13;;;22.14;74.58
5595;BME280;1003;48.002;7.788;2022-09-24T11:25:02;98510.72;;;22.23;77.40
5595;BME280;1003;48.002;7.788;2022-09-24T11:27:44;98515.63;;;21.88;74.88
5595;BME280;1003;48.002;7.788;2022-09-24T11:30:16;98511.81;;;21.56;80.33
5595;BME280;1003;48.002;7.788;2022-09-24T11:32:58;98511.19;;;21.12;82.92
5595;BME280;1003;48.002;7.788;2022-09-24T11:35:52;98510.72;;;20.93;86.90
5595;BME280;1003;48.002;7.788;2022-09-24T11:38:28;98507.13;;;21.10;82.17
5595;BME280;1003;48.002;7.788;2022-09-24T11:41:15;98499.41;;;20.97;84.31
5595;BME280;1003;48.002;7.788;2022-09-24T11:44:00;98492.06;;;21.05;83.80
5595;BME280;1003;48.002;7.788;2022-09-24T11:46:49;98491.19;;;20.92;85.79
5595;BME280;1003;48.002;7.788;2022-09-24T11:49:31;98487.97;;;20.76;87.05
5595;BME280;1003;48.002;7.788;2022-09-24T11:52:09;98483.53;;;20.65;91.30
5595;BME280;1003;48.002;7.788;2022-09-24T11:54:42;98483.00;;;20.60;95.07
5595;BME280;1003;48.002;7.788;2022-09-24T11:57:15;98483.91;;;20.44;95.53
5595;BME280;1003;48.002;7.788;2022-09-24T11:59:51;98478.19;;;20.55;91.13
5595;BME280;1003;48.002;7.788;2022-09-24T12:02:26;98474.91;;;20.53;88.25
5595;BME280;1003;48.002;7.788;2022-09-24T12:04:59;98474.28;;;20.50;95.61
5595;BME280;1003;48.002;7.788;2022-09-24T12:07:35;98469.63;;;20.56;94.69
5595;BME280;1003;48.002;7.788;2022-09-24T12:10:21;98463.28;;;20.35;100.00
5595;BME280;1003;48.002;7.788;2022-09-24T12:12:53;98464.06;;;20.50;94.91
5595;BME280;1003;48.002;7.788;2022-09-24T12:15:26;98462.81;;;20.28;88.19
5595;BME280;1003;48.002;7.788;2022-09-24T12:18:00;98459.63;;;20.25;84.88
5595;BME280;1003;48.002;7.788;2022-09-24T12:20:29;98460.63;;;20.36;82.03
5595;BME280;1003;48.002;7.788;2022-09-24T12:23:01;98462.53;;;20.33;87.98
5595;BME280;1003;48.002;7.788;2022-09-24T12:25:37;98462.06;;;20.40;91.18
5595;BME280;1003;48.002;7.788;2022-09-24T12:28:09;98466.53;;;20.37;93.91
5595;BME280;1003;48.002;7.788;2022-09-24T12:30:41;98466.72;;;20.48;94.52
5595;BME280;1003;48.002;7.788;2022-09-24T12:33:33;98465.25;;;20.58;95.28
5595;BME280;1003;48.002;7.788;2022-09-24T12:36:11;98471.41;;;20.68;91.20
5595;BME280;1003;48.002;7.788;2022-09-24T12:38:43;98461.38;;;20.65;84.16
5595;BME280;1003;48.002;7.788;2022-09-24T12:41:24;98459.94;;;20.88;83.71
5595;BME280;1003;48.002;7.788;2022-09-24T12:43:58;98453.47;;;21.10;77.11
5595;BME280;1003;48.002;7.788;2022-09-24T12:46:30;98443.13;;;21.11;79.95
5595;BME280;1003;48.002;7.788;2022-09-24T12:48:58;98449.09;;;20.85;81.89
5595;BME280;1003;48.002;7.788;2022-09-24T12:51:34;98451.72;;;21.10;82.31
5595;BME280;1003;48.002;7.788;2022-09-24T12:54:14;98440.47;;;21.13;78.90
5595;BME280;1003;48.002;7.788;2022-09-24T12:56:43;98437.97;;;21.51;79.43
5595;BME280;1003;48.002;7.788;2022-09-24T12:59:23;98442.06;;;21.54;75.01
5595;BME280;1003;48.002;7.788;2022-09-24T13:01:51;98441.84;;;21.44;75.95
5595;BME280;1003;48.002;7.788;2022-09-24T13:04:26;98435.31;;;21.53;77.92
5595;BME280;1003;48.002;7.788;2022-09-24T13:06:54;98434.50;;;21.65;79.86
5595;BME280;1003;48.002;7.788;2022-09-24T13:09:35;98427.44;;;21.43;82.76
5595;BME280;1003;48.002;7.788;2022-09-24T13:12:16;98427.22;;;21.71;79.82
5595;BME280;1003;48.002;7.788;2022-09-24T13:14:50;98425.91;;;21.66;74.50
5595;BME280;1003;48.002;7.788;2022-09-24T13:17:18;98429.66;;;21.73;74.09
5595;BME280;1003;48.002;7.788;2022-09-24T13:19:47;98429.50;;;21.63;77.36
5595;BME280;1003;48.002;7.788;2022-09-24T13:22:22;98431.41;;;21.47;77.46
5595;BME280;1003;48.002;7.788;2022-09-24T13:25:16;98433.78;;;21.37;77.58
5595;BME280;1003;48.002;7.788;2022-09-24T13:27:56;98432.50;;;21.17;76.41
5595;BME280;1003;48.002;7.788;2022-09-24T13:30:32;98427.13;;;21.35;72.91
5595;BME280;1003;48.002;7.788;2022-09-24T13:33:08;98427.00;;;21.36;75.26
5595;BME280;1003;48.002;7.788;2022-09-24T13:35:43;98426.44;;;21.58;75.04
5595;BME280;1003;48.002;7.788;2022-09-24T13:38:19;98424.47;;;21.74;72.37
5595;BME280;1003;48.002;7.788;2022-09-24T13:40:54;98416.91;;;21.47;69.62
5595;BME280;1003;48.002;7.788;2022-09-24T13:43:37;98404.63;;;21.53;68.84